Time;durP1;ratioP1;P1;durP2;ratioP2;P2;SDS_P1;SDS_P2;PMS_P1;PMS_P2;Temp;Humidity;BMP_temperature;BMP_pressure;BME280_temperature;BME280_humidity;BME280_pressure;Samples;Min_cycle;Max_cycle;Signal;HPM_P1;HPM_P2
2023/09/14 00:01:29;;;;;;;21.20;3.22;;;;;;;;;;5062143;28;20996;-63
2023/09/14 00:03:54;;;;;;;16.60;1.88;;;;;;;;;;5072925;28;20020;-63
2023/09/14 00:06:19;;;;;;;9.63;2.93;;;;;;;;;;5071525;28;20032;-63
2023/09/14 00:08:45;;;;;;;2.73;2.53;;;;;;;;;;5072242;28;20387;-62
2023/09/14 00:11:11;;;;;;;2.53;2.10;;;;;;;;;;5071360;28;20032;-62
2023/09/14 00:13:36;;;;;;;3.55;2.83;;;;;;;;;;5072519;28;20017;-62
2023/09/14 00:16:02;;;;;;;3.87;2.87;;;;;;;;;;5070966;28;20093;-62
2023/09/14 00:18:27;;;;;;;3.33;3.10;;;;;;;;;;5072812;28;20028;-62
2023/09/14 00:20:53;;;;;;;8.40;3.50;;;;;;;;;;5070937;28;20494;-63
2023/09/14 00:23:19;;;;;;;5.97;2.97;;;;;;;;;;5072039;28;20434;-63
2023/09/14 00:25:44;;;;;;;3.70;2.70;;;;;;;;;;5070800;28;20341;-62
2023/09/14 00:28:09;;;;;;;3.15;2.85;;;;;;;;;;5072126;28;20149;-62
2023/09/14 00:30:34;;;;;;;35.38;3.42;;;;;;;;;;5070204;28;20368;-62
2023/09/14 00:32:59;;;;;;;5.82;2.30;;;;;;;;;;5072450;28;20028;-62
2023/09/14 00:35:25;;;;;;;8.40;3.87;;;;;;;;;;5070929;28;20063;-62
2023/09/14 00:37:50;;;;;;;4.07;2.95;;;;;;;;;;5071845;28;20101;-62
2023/09/14 00:40:15;;;;;;;5.68;2.15;;;;;;;;;;5070416;28;20102;-62
2023/09/14 00:42:45;;;;;;;2.42;1.95;;;;;;;;;;5071728;28;20012;-62
2023/09/14 00:45:14;;;;;;;2.50;2.03;;;;;;;;;;5070155;28;20459;-61
2023/09/14 00:47:41;;;;;;;2.47;2.28;;;;;;;;;;5071967;28;20039;-62
2023/09/14 00:50:06;;;;;;;4.10;3.67;;;;;;;;;;5072002;28;20086;-64
2023/09/14 00:52:36;;;;;;;6.38;3.67;;;;;;;;;;5069772;28;20048;-63
2023/09/14 00:55:01;;;;;;;4.80;3.88;;;;;;;;;;5071729;28;20112;-62
2023/09/14 00:57:26;;;;;;;5.43;4.38;;;;;;;;;;5070398;28;20053;-63
2023/09/14 00:59:52;;;;;;;10.93;3.87;;;;;;;;;;5071139;28;20066;-62
2023/09/14 01:02:18;;;;;;;11.95;5.43;;;;;;;;;;5070398;28;20029;-62
2023/09/14 01:04:43;;;;;;;4.90;4.47;;;;;;;;;;5069949;28;20101;-62
2023/09/14 01:07:09;;;;;;;7.53;4.18;;;;;;;;;;5069815;28;20036;-62
2023/09/14 01:09:34;;;;;;;7.32;4.05;;;;;;;;;;5071669;28;20532;-62
2023/09/14 01:12:00;;;;;;;6.17;4.27;;;;;;;;;;5069138;28;20051;-62
2023/09/14 01:14:32;;;;;;;7.07;4.70;;;;;;;;;;5071195;28;20434;-62
2023/09/14 01:17:14;;;;;;;4.57;4.13;;;;;;;;;;5070109;28;20032;-68
2023/09/14 01:19:50;;;;;;;4.55;3.75;;;;;;;;;;5071029;28;20546;-62
2023/09/14 01:22:39;;;;;;;9.65;4.90;;;;;;;;;;5069603;28;20028;-62
2023/09/14 01:25:04;;;;;;;4.35;3.42;;;;;;;;;;5071265;28;20474;-62
2023/09/14 01:27:30;;;;;;;4.68;4.15;;;;;;;;;;5069492;28;20119;-62
2023/09/14 01:29:59;;;;;;;8.33;4.83;;;;;;;;;;5069016;28;20037;-62
2023/09/14 01:32:25;;;;;;;13.02;7.10;;;;;;;;;;5069704;28;20456;-62
2023/09/14 01:34:51;;;;;;;7.13;5.70;;;;;;;;;;5071254;28;20028;-61
2023/09/14 01:37:16;;;;;;;6.05;4.82;;;;;;;;;;5069391;28;20562;-64
2023/09/14 01:39:41;;;;;;;9.20;6.00;;;;;;;;;;5070651;28;20399;-61
2023/09/14 01:42:07;;;;;;;9.82;5.18;;;;;;;;;;5068178;28;20036;-62
2023/09/14 01:44:32;;;;;;;5.75;4.43;;;;;;;;;;5070201;28;20372;-62
2023/09/14 01:46:57;;;;;;;7.53;5.75;;;;;;;;;;5069437;28;20024;-62
2023/09/14 01:49:22;;;;;;;11.73;6.33;;;;;;;;;;5070320;28;20028;-62
2023/09/14 01:51:48;;;;;;;9.65;4.70;;;;;;;;;;5068785;28;20465;-62
2023/09/14 01:54:13;;;;;;;9.80;5.33;;;;;;;;;;5070891;28;20020;-61
2023/09/14 01:56:38;;;;;;;7.28;5.13;;;;;;;;;;5069295;28;20124;-61
2023/09/14 01:59:03;;;;;;;16.40;6.13;;;;;;;;;;5070286;28;20032;-61
2023/09/14 02:01:28;;;;;;;14.30;7.80;;;;;;;;;;5068972;28;20070;-61
2023/09/14 02:03:54;;;;;;;8.73;5.33;;;;;;;;;;5070600;28;20016;-61
2023/09/14 02:06:19;;;;;;;11.23;6.90;;;;;;;;;;5069131;28;20455;-61
2023/09/14 02:08:44;;;;;;;11.52;6.80;;;;;;;;;;5069896;28;20030;-62
2023/09/14 02:11:11;;;;;;;12.00;3.80;;;;;;;;;;5069207;28;20024;-62
2023/09/14 02:13:37;;;;;;;5.03;4.40;;;;;;;;;;5070142;28;20052;-63
2023/09/14 02:16:03;;;;;;;7.03;4.50;;;;;;;;;;5069393;28;20391;-61
2023/09/14 02:18:28;;;;;;;9.75;5.65;;;;;;;;;;5070184;28;20021;-61
2023/09/14 02:20:53;;;;;;;10.48;5.63;;;;;;;;;;5068772;28;20388;-61
2023/09/14 02:23:18;;;;;;;16.55;8.13;;;;;;;;;;5070318;28;20052;-61
2023/09/14 02:25:44;;;;;;;13.60;5.80;;;;;;;;;;5068836;28;20025;-61
2023/09/14 02:28:09;;;;;;;6.28;4.97;;;;;;;;;;5069847;28;20402;-61
2023/09/14 02:30:37;;;;;;;12.17;3.27;;;;;;;;;;5068820;28;20160;-61
2023/09/14 02:33:03;;;;;;;79.00;5.78;;;;;;;;;;5070439;28;20027;-61
2023/09/14 02:35:28;;;;;;;18.92;4.25;;;;;;;;;;5068458;28;20032;-61
2023/09/14 02:37:53;;;;;;;32.15;4.60;;;;;;;;;;5068923;28;20009;-62
2023/09/14 02:40:18;;;;;;;3.97;3.40;;;;;;;;;;5068717;28;20094;-62
2023/09/14 02:42:43;;;;;;;3.70;2.45;;;;;;;;;;5069676;28;20016;-62
2023/09/14 02:45:09;;;;;;;9.18;3.85;;;;;;;;;;5068284;28;20020;-60
2023/09/14 02:47:34;;;;;;;3.90;2.20;;;;;;;;;;5068791;28;20102;-62
2023/09/14 02:49:59;;;;;;;35.58;4.50;;;;;;;;;;5069573;28;20063;-63
2023/09/14 02:52:24;;;;;;;16.02;2.97;;;;;;;;;;5068755;28;20170;-62
2023/09/14 02:54:50;;;;;;;20.60;3.67;;;;;;;;;;5070195;28;20080;-62
2023/09/14 02:57:15;;;;;;;89.85;6.38;;;;;;;;;;5068254;28;20059;-62
2023/09/14 02:59:40;;;;;;;9.77;2.40;;;;;;;;;;5069666;28;20020;-62
2023/09/14 03:02:05;;;;;;;3.83;2.40;;;;;;;;;;5068726;28;20085;-61
2023/09/14 03:04:30;;;;;;;5.27;2.77;;;;;;;;;;5069515;28;20020;-61
2023/09/14 03:06:56;;;;;;;3.70;3.40;;;;;;;;;;5068606;28;20119;-62
2023/09/14 03:09:21;;;;;;;6.65;4.32;;;;;;;;;;5070355;28;20380;-73
2023/09/14 03:11:46;;;;;;;11.85;4.07;;;;;;;;;;5067863;28;20062;-62
2023/09/14 03:14:12;;;;;;;8.83;5.67;;;;;;;;;;5069851;28;20063;-61
2023/09/14 03:16:37;;;;;;;9.30;4.53;;;;;;;;;;5068251;28;20538;-66
2023/09/14 03:19:03;;;;;;;5.03;4.28;;;;;;;;;;5069501;28;20024;-62
2023/09/14 03:21:28;;;;;;;8.20;3.78;;;;;;;;;;5068347;28;20048;-62
2023/09/14 03:23:53;;;;;;;35.43;3.53;;;;;;;;;;5069797;28;20368;-62
2023/09/14 03:26:19;;;;;;;3.05;2.75;;;;;;;;;;5068025;28;20528;-62
2023/09/14 03:28:45;;;;;;;3.80;3.10;;;;;;;;;;5069648;28;20123;-61
2023/09/14 03:31:10;;;;;;;6.40;5.25;;;;;;;;;;5068455;28;20670;-61
2023/09/14 03:33:35;;;;;;;9.20;5.32;;;;;;;;;;5069220;28;20025;-61
2023/09/14 03:36:01;;;;;;;6.57;4.80;;;;;;;;;;5069652;28;20497;-62
2023/09/14 03:38:26;;;;;;;11.23;5.57;;;;;;;;;;5072091;28;20047;-62
2023/09/14 03:40:52;;;;;;;6.47;5.13;;;;;;;;;;5057568;28;20029;-62
2023/09/14 03:43:17;;;;;;;4.45;4.05;;;;;;;;;;5072727;28;20107;-62
2023/09/14 03:45:42;;;;;;;6.22;3.60;;;;;;;;;;5071510;28;20048;-62
2023/09/14 03:48:07;;;;;;;2.53;2.33;;;;;;;;;;5073224;28;20009;-62
2023/09/14 03:50:32;;;;;;;2.58;2.38;;;;;;;;;;5070980;28;20112;-62
2023/09/14 03:52:57;;;;;;;6.13;4.10;;;;;;;;;;5072742;28;20012;-62
2023/09/14 03:55:23;;;;;;;4.93;2.95;;;;;;;;;;5071658;28;20468;-62
2023/09/14 03:57:48;;;;;;;6.80;4.33;;;;;;;;;;5072369;28;20022;-62
2023/09/14 04:00:15;;;;;;;12.77;5.28;;;;;;;;;;5070076;28;20028;-63
2023/09/14 04:02:40;;;;;;;5.95;3.22;;;;;;;;;;5072695;28;20349;-62
2023/09/14 04:05:12;;;;;;;5.53;3.85;;;;;;;;;;5072426;28;20086;-62
2023/09/14 04:07:37;;;;;;;7.85;3.78;;;;;;;;;;5070869;28;20036;-62
2023/09/14 04:10:04;;;;;;;3.50;3.20;;;;;;;;;;5073033;28;20491;-62
2023/09/14 04:12:30;;;;;;;4.32;3.92;;;;;;;;;;5069971;28;20479;-68
2023/09/14 04:14:55;;;;;;;7.57;3.70;;;;;;;;;;5071538;28;20069;-61
2023/09/14 04:17:20;;;;;;;4.63;4.22;;;;;;;;;;5071159;28;20384;-61
2023/09/14 04:19:45;;;;;;;9.13;3.20;;;;;;;;;;5071926;28;20025;-62
2023/09/14 04:22:10;;;;;;;3.83;3.53;;;;;;;;;;5070091;28;20489;-63
2023/09/14 04:24:36;;;;;;;4.27;3.73;;;;;;;;;;5071560;28;20014;-62
2023/09/14 04:27:01;;;;;;;17.58;4.05;;;;;;;;;;5070578;28;20485;-59
2023/09/14 04:29:26;;;;;;;5.88;4.60;;;;;;;;;;5072197;28;20091;-60
2023/09/14 04:31:51;;;;;;;29.48;4.38;;;;;;;;;;5069332;28;20071;-60
2023/09/14 04:34:16;;;;;;;4.75;2.15;;;;;;;;;;5071932;28;20043;-59
2023/09/14 04:36:41;;;;;;;36.03;4.03;;;;;;;;;;5070775;28;20455;-60
2023/09/14 04:39:07;;;;;;;8.18;3.47;;;;;;;;;;5071140;28;20078;-59
2023/09/14 04:41:32;;;;;;;6.70;3.75;;;;;;;;;;5069963;28;20055;-60
2023/09/14 04:43:57;;;;;;;7.07;5.57;;;;;;;;;;5072309;28;20555;-59
2023/09/14 04:46:23;;;;;;;9.68;4.20;;;;;;;;;;5069444;28;20024;-59
2023/09/14 04:48:48;;;;;;;8.00;4.07;;;;;;;;;;5071416;28;20036;-66
2023/09/14 04:51:13;;;;;;;4.75;4.45;;;;;;;;;;5070498;28;20085;-59
2023/09/14 04:53:38;;;;;;;5.50;4.73;;;;;;;;;;5071737;28;20032;-59
2023/09/14 04:56:04;;;;;;;4.32;3.95;;;;;;;;;;5068943;28;20024;-60
2023/09/14 04:58:29;;;;;;;4.60;3.35;;;;;;;;;;5071753;28;20036;-59
2023/09/14 05:00:54;;;;;;;4.53;3.72;;;;;;;;;;5070228;28;20471;-57
2023/09/14 05:03:19;;;;;;;5.80;3.90;;;;;;;;;;5061381;28;20085;-59
2023/09/14 05:05:52;;;;;;;6.82;4.25;;;;;;;;;;5059836;28;20961;-59
2023/09/14 05:08:17;;;;;;;7.38;5.18;;;;;;;;;;5057604;28;20040;-59
2023/09/14 05:10:42;;;;;;;6.40;4.70;;;;;;;;;;5059682;28;20016;-58
2023/09/14 05:13:07;;;;;;;7.22;4.90;;;;;;;;;;5058588;28;20029;-59
2023/09/14 05:15:33;;;;;;;5.47;3.30;;;;;;;;;;5058661;28;20491;-58
2023/09/14 05:17:58;;;;;;;5.00;4.25;;;;;;;;;;5059617;28;20032;-58
2023/09/14 05:20:23;;;;;;;8.23;4.97;;;;;;;;;;5061069;28;20120;-58
2023/09/14 05:22:48;;;;;;;2.90;2.38;;;;;;;;;;5060441;28;20040;-62
2023/09/14 05:25:14;;;;;;;9.98;4.82;;;;;;;;;;5061139;28;20013;-58
2023/09/14 05:27:40;;;;;;;7.65;5.53;;;;;;;;;;5059403;28;20037;-58
2023/09/14 05:30:06;;;;;;;9.38;5.10;;;;;;;;;;5061803;28;20483;-58
2023/09/14 05:32:31;;;;;;;4.63;4.18;;;;;;;;;;5059086;28;20538;-58
2023/09/14 05:34:56;;;;;;;54.83;4.83;;;;;;;;;;5060288;28;20497;-58
2023/09/14 05:37:21;;;;;;;7.85;3.58;;;;;;;;;;5065316;28;20459;-58
2023/09/14 05:39:48;;;;;;;5.28;4.40;;;;;;;;;;5070098;28;20461;-58
2023/09/14 05:42:13;;;;;;;3.70;3.38;;;;;;;;;;5069297;28;20033;-58
2023/09/14 05:44:38;;;;;;;10.90;3.63;;;;;;;;;;5070506;28;20017;-58
2023/09/14 05:47:03;;;;;;;3.78;3.10;;;;;;;;;;5068059;28;20040;-60
2023/09/14 05:49:29;;;;;;;4.50;3.53;;;;;;;;;;5069648;28;20483;-59
2023/09/14 05:51:54;;;;;;;4.57;3.72;;;;;;;;;;5067871;28;20055;-59
2023/09/14 05:54:19;;;;;;;4.40;3.43;;;;;;;;;;5070129;28;20399;-58
2023/09/14 05:56:44;;;;;;;3.50;3.20;;;;;;;;;;5069005;28;20048;-58
2023/09/14 05:59:09;;;;;;;4.75;3.58;;;;;;;;;;5070411;28;20560;-58
2023/09/14 06:01:36;;;;;;;7.30;4.93;;;;;;;;;;5069150;28;20042;-58
2023/09/14 06:04:01;;;;;;;6.25;4.30;;;;;;;;;;5069903;28;20020;-58
2023/09/14 06:06:26;;;;;;;7.03;5.23;;;;;;;;;;5068876;28;20147;-58
2023/09/14 06:08:51;;;;;;;3.85;3.55;;;;;;;;;;5067583;28;20459;-58
2023/09/14 06:11:16;;;;;;;8.80;4.83;;;;;;;;;;5068465;28;20036;-58
2023/09/14 06:13:42;;;;;;;8.55;5.15;;;;;;;;;;5069781;28;20490;-57
2023/09/14 06:16:07;;;;;;;9.75;5.65;;;;;;;;;;5066802;28;20024;-59
2023/09/14 06:18:32;;;;;;;6.70;6.00;;;;;;;;;;5064492;28;20468;-58
2023/09/14 06:20:58;;;;;;;11.15;7.97;;;;;;;;;;5048906;28;20559;-58
2023/09/14 06:23:23;;;;;;;9.88;6.10;;;;;;;;;;5050164;28;20376;-58
2023/09/14 06:25:50;;;;;;;7.03;6.05;;;;;;;;;;5049420;28;20088;-59
2023/09/14 06:28:15;;;;;;;8.98;6.30;;;;;;;;;;5048634;28;20033;-59
2023/09/14 06:30:40;;;;;;;11.23;5.18;;;;;;;;;;5052874;28;20036;-58
2023/09/14 06:33:05;;;;;;;6.13;5.13;;;;;;;;;;5069621;28;20016;-58
2023/09/14 06:35:31;;;;;;;7.32;6.57;;;;;;;;;;5068485;28;20426;-58
2023/09/14 06:37:56;;;;;;;8.40;5.10;;;;;;;;;;5069661;28;20017;-58
2023/09/14 06:40:22;;;;;;;8.40;5.97;;;;;;;;;;5067580;28;20124;-58
2023/09/14 06:42:47;;;;;;;11.13;8.50;;;;;;;;;;5069851;28;20491;-58
2023/09/14 06:45:12;;;;;;;7.05;5.97;;;;;;;;;;5068439;28;20502;-58
2023/09/14 06:47:38;;;;;;;11.23;6.47;;;;;;;;;;5069429;28;20066;-58
2023/09/14 06:50:04;;;;;;;12.82;8.32;;;;;;;;;;5070196;28;20070;-58
2023/09/14 06:52:30;;;;;;;7.18;6.38;;;;;;;;;;5068179;28;20039;-58
2023/09/14 06:54:56;;;;;;;8.70;6.63;;;;;;;;;;5069935;28;20028;-58
2023/09/14 06:57:21;;;;;;;10.17;6.53;;;;;;;;;;5068633;28;20037;-58
2023/09/14 06:59:46;;;;;;;18.80;7.57;;;;;;;;;;5069730;28;20024;-58
2023/09/14 07:02:11;;;;;;;8.00;5.07;;;;;;;;;;5068129;28;20037;-62
2023/09/14 07:04:36;;;;;;;8.63;5.60;;;;;;;;;;5069456;28;20502;-59
2023/09/14 07:07:01;;;;;;;8.80;6.77;;;;;;;;;;5068405;28;20037;-58
2023/09/14 07:09:27;;;;;;;13.93;5.80;;;;;;;;;;5070135;28;20518;-58
2023/09/14 07:11:53;;;;;;;9.07;4.60;;;;;;;;;;5072093;28;20124;-58
2023/09/14 07:14:18;;;;;;;12.98;5.18;;;;;;;;;;5073752;28;20111;-58
2023/09/14 07:16:43;;;;;;;8.67;4.77;;;;;;;;;;5071546;28;20055;-58
2023/09/14 07:19:08;;;;;;;11.05;6.80;;;;;;;;;;5073638;28;20107;-58
2023/09/14 07:21:37;;;;;;;11.07;5.38;;;;;;;;;;5072027;28;20040;-58
2023/09/14 07:24:03;;;;;;;;;;;;;;;;;;5073982;28;20044;-58
2023/09/14 07:26:28;;;;;;;13.57;6.90;;;;;;;;;;5071778;28;19936;-58
2023/09/14 07:28:53;;;;;;;9.40;4.97;;;;;;;;;;5073420;28;20541;-58
2023/09/14 07:31:19;;;;;;;16.67;5.78;;;;;;;;;;5071471;28;20032;-58
2023/09/14 07:33:44;;;;;;;23.55;6.00;;;;;;;;;;5073501;28;20025;-58
2023/09/14 07:36:09;;;;;;;7.88;4.72;;;;;;;;;;5071739;28;20028;-61
2023/09/14 07:38:35;;;;;;;9.53;4.40;;;;;;;;;;5067615;28;20053;-59
2023/09/14 07:41:00;;;;;;;9.23;4.30;;;;;;;;;;5057125;28;20025;-60
2023/09/14 07:43:25;;;;;;;10.27;5.03;;;;;;;;;;5073396;28;20033;-59
2023/09/14 07:45:50;;;;;;;13.65;5.80;;;;;;;;;;5071027;28;20443;-58
2023/09/14 07:48:16;;;;;;;8.20;4.03;;;;;;;;;;5055614;28;20021;-58
2023/09/14 07:50:41;;;;;;;8.05;4.15;;;;;;;;;;5050503;28;20451;-59
2023/09/14 07:53:07;;;;;;;13.98;4.85;;;;;;;;;;5052917;28;20139;-59
2023/09/14 07:55:32;;;;;;;6.20;3.92;;;;;;;;;;5051472;28;20112;-58
2023/09/14 07:57:58;;;;;;;5.15;3.35;;;;;;;;;;5053150;28;20025;-58
2023/09/14 08:00:23;;;;;;;9.95;4.72;;;;;;;;;;5050785;28;20017;-58
2023/09/14 08:02:48;;;;;;;8.73;3.70;;;;;;;;;;5052613;28;20057;-59
2023/09/14 08:05:13;;;;;;;8.00;3.90;;;;;;;;;;5051100;28;20063;-59
2023/09/14 08:07:38;;;;;;;6.13;3.70;;;;;;;;;;5060949;28;20024;-63
2023/09/14 08:10:04;;;;;;;4.38;2.75;;;;;;;;;;5073083;28;20045;-58
2023/09/14 08:12:29;;;;;;;8.20;3.38;;;;;;;;;;5070831;28;20029;-58
2023/09/14 08:14:54;;;;;;;7.30;4.27;;;;;;;;;;5072354;28;20028;-59
2023/09/14 08:17:20;;;;;;;9.87;3.30;;;;;;;;;;5070908;28;20513;-59
2023/09/14 08:19:45;;;;;;;5.67;3.33;;;;;;;;;;5072312;28;20588;-59
2023/09/14 08:22:10;;;;;;;20.47;4.17;;;;;;;;;;5070611;28;20530;-59
2023/09/14 08:24:35;;;;;;;3.07;2.17;;;;;;;;;;5071777;28;20491;-60
2023/09/14 08:27:00;;;;;;;6.00;4.27;;;;;;;;;;5070877;28;20036;-59
2023/09/14 08:29:26;;;;;;;6.63;3.15;;;;;;;;;;5072364;28;20468;-59
2023/09/14 08:31:51;;;;;;;9.45;3.78;;;;;;;;;;5070297;28;20036;-58
2023/09/14 08:34:16;;;;;;;8.75;3.80;;;;;;;;;;5072298;28;20096;-59
2023/09/14 08:36:41;;;;;;;9.65;2.85;;;;;;;;;;5051752;28;20408;-59
2023/09/14 08:39:06;;;;;;;9.63;4.13;;;;;;;;;;5046882;28;20041;-58
2023/09/14 08:41:36;;;;;;;5.03;3.10;;;;;;;;;;5050291;28;20446;-59
2023/09/14 08:44:02;;;;;;;9.75;2.67;;;;;;;;;;5052174;28;20013;-59
2023/09/14 08:46:28;;;;;;;8.05;3.40;;;;;;;;;;5050133;28;20435;-59
2023/09/14 08:48:54;;;;;;;9.57;2.90;;;;;;;;;;5051846;28;20029;-59
2023/09/14 08:51:20;;;;;;;6.90;4.20;;;;;;;;;;5050530;28;20507;-59
2023/09/14 08:53:45;;;;;;;6.45;2.92;;;;;;;;;;5051289;28;20033;-59
2023/09/14 08:56:11;;;;;;;6.55;2.88;;;;;;;;;;5050527;28;20043;-59
2023/09/14 08:58:37;;;;;;;7.38;2.67;;;;;;;;;;5051579;28;20017;-59
2023/09/14 09:01:03;;;;;;;4.00;1.73;;;;;;;;;;5050083;28;20518;-59
2023/09/14 09:03:28;;;;;;;4.90;2.30;;;;;;;;;;5051567;28;20475;-59
2023/09/14 09:05:53;;;;;;;3.85;1.90;;;;;;;;;;5050046;28;20025;-59
2023/09/14 09:08:20;;;;;;;7.00;2.35;;;;;;;;;;5051540;28;20063;-59
2023/09/14 09:10:46;;;;;;;5.03;2.15;;;;;;;;;;5049976;28;20484;-59
2023/09/14 09:13:11;;;;;;;5.10;2.33;;;;;;;;;;5051813;28;20055;-59
2023/09/14 09:15:36;;;;;;;6.57;2.83;;;;;;;;;;5047827;28;20029;-72
2023/09/14 09:18:06;;;;;;;3.85;1.85;;;;;;;;;;5051676;28;20075;-59
2023/09/14 09:20:32;;;;;;;5.82;2.30;;;;;;;;;;5049701;28;20496;-59
2023/09/14 09:22:59;;;;;;;7.18;2.20;;;;;;;;;;5050728;28;20028;-59
2023/09/14 09:25:25;;;;;;;9.02;2.08;;;;;;;;;;5049779;28;20570;-59
2023/09/14 09:28:02;;;;;;;5.57;2.20;;;;;;;;;;5050707;28;20025;-59
2023/09/14 09:30:30;;;;;;;6.93;2.60;;;;;;;;;;5049539;28;20039;-59
2023/09/14 09:32:56;;;;;;;5.38;2.35;;;;;;;;;;5050522;28;20476;-59
2023/09/14 09:35:22;;;;;;;6.15;2.50;;;;;;;;;;5049984;28;20020;-66
2023/09/14 09:37:48;;;;;;;8.65;2.42;;;;;;;;;;5050134;28;20021;-59
2023/09/14 09:40:22;;;;;;;7.38;3.00;;;;;;;;;;5049156;28;20041;-59
2023/09/14 09:42:48;;;;;;;6.38;3.28;;;;;;;;;;5049408;28;20017;-59
2023/09/14 09:45:13;;;;;;;5.22;1.88;;;;;;;;;;5049316;28;20037;-58
2023/09/14 09:47:39;;;;;;;4.72;3.28;;;;;;;;;;5050735;28;20053;-59
2023/09/14 09:50:11;;;;;;;4.53;2.15;;;;;;;;;;5051048;28;20021;-59
2023/09/14 09:52:37;;;;;;;7.30;2.70;;;;;;;;;;5049022;28;20064;-59
2023/09/14 09:55:04;;;;;;;5.70;2.22;;;;;;;;;;5050871;28;20021;-60
2023/09/14 09:57:30;;;;;;;5.05;2.17;;;;;;;;;;5049060;28;20087;-69
2023/09/14 09:59:55;;;;;;;6.50;2.05;;;;;;;;;;5050585;28;20511;-60
2023/09/14 10:02:33;;;;;;;8.25;3.17;;;;;;;;;;5049346;28;20532;-59
2023/09/14 10:04:58;;;;;;;4.50;2.33;;;;;;;;;;5054409;28;20100;-60
2023/09/14 10:07:24;;;;;;;7.93;2.67;;;;;;;;;;5067979;28;20124;-61
2023/09/14 10:09:55;;;;;;;10.63;2.28;;;;;;;;;;5070360;28;20024;-60
2023/09/14 10:12:24;;;;;;;5.90;2.50;;;;;;;;;;5069079;28;20436;-64
2023/09/14 10:14:51;;;;;;;7.88;2.58;;;;;;;;;;5068778;28;20032;-60
2023/09/14 10:17:20;;;;;;;4.88;2.13;;;;;;;;;;5068168;28;20499;-60
2023/09/14 10:19:47;;;;;;;5.00;1.73;;;;;;;;;;5070265;28;20043;-60
2023/09/14 10:22:13;;;;;;;5.22;2.45;;;;;;;;;;5068679;28;20028;-60
2023/09/14 10:24:39;;;;;;;8.95;3.25;;;;;;;;;;5070085;28;20023;-61
2023/09/14 10:27:04;;;;;;;8.30;2.67;;;;;;;;;;5068794;28;20028;-60
2023/09/14 10:29:32;;;;;;;6.45;2.25;;;;;;;;;;5068718;28;20100;-60
2023/09/14 10:31:57;;;;;;;5.35;3.10;;;;;;;;;;5067580;28;20036;-60
2023/09/14 10:34:23;;;;;;;5.03;2.25;;;;;;;;;;5069018;28;20029;-60
2023/09/14 10:36:50;;;;;;;6.72;3.83;;;;;;;;;;5066940;28;20040;-60
2023/09/14 10:39:17;;;;;;;9.77;2.50;;;;;;;;;;5068649;28;20230;-59
2023/09/14 10:41:42;;;;;;;3.55;2.13;;;;;;;;;;5067415;28;20414;-60
2023/09/14 10:44:07;;;;;;;3.93;2.30;;;;;;;;;;5071714;28;20035;-60
2023/09/14 10:46:36;;;;;;;5.63;2.40;;;;;;;;;;5072773;28;20049;-60
2023/09/14 10:49:01;;;;;;;7.10;2.42;;;;;;;;;;5074367;28;20024;-60
2023/09/14 10:51:28;;;;;;;3.25;2.25;;;;;;;;;;5066960;28;20041;-60
2023/09/14 10:53:53;;;;;;;6.80;2.58;;;;;;;;;;5053468;28;20547;-61
2023/09/14 10:56:20;;;;;;;4.30;1.67;;;;;;;;;;5052258;28;20115;-60
2023/09/14 10:58:48;;;;;;;3.72;2.25;;;;;;;;;;5053173;28;20476;-60
2023/09/14 11:01:13;;;;;;;3.35;2.78;;;;;;;;;;5052222;28;20036;-60
2023/09/14 11:03:57;;;;;;;7.55;2.58;;;;;;;;;;5052903;28;20017;-66
2023/09/14 11:06:42;;;;;;;4.00;2.70;;;;;;;;;;5052286;28;20492;-60
2023/09/14 11:09:07;;;;;;;9.48;2.97;;;;;;;;;;5053931;28;20028;-60
2023/09/14 11:11:43;;;;;;;8.10;2.60;;;;;;;;;;5051992;28;20033;-60
2023/09/14 11:14:09;;;;;;;5.63;3.08;;;;;;;;;;5053904;28;20114;-60
2023/09/14 11:16:41;;;;;;;5.47;3.13;;;;;;;;;;5052295;28;20029;-60
2023/09/14 11:19:06;;;;;;;4.97;2.90;;;;;;;;;;5053535;28;20107;-60
2023/09/14 11:21:31;;;;;;;19.50;2.90;;;;;;;;;;5051640;28;20477;-60
2023/09/14 11:23:56;;;;;;;3.83;2.27;;;;;;;;;;5053730;28;20017;-60
2023/09/14 11:26:28;;;;;;;2.75;1.98;;;;;;;;;;5052179;28;20448;-73
2023/09/14 11:28:54;;;;;;;7.15;3.03;;;;;;;;;;5053671;28;20032;-60
2023/09/14 11:31:26;;;;;;;5.47;2.53;;;;;;;;;;5050707;28;20399;-59
2023/09/14 11:33:52;;;;;;;3.33;3.00;;;;;;;;;;5053419;28;20082;-60
2023/09/14 11:36:17;;;;;;;7.18;3.00;;;;;;;;;;5051652;28;20061;-59
2023/09/14 11:38:43;;;;;;;14.48;3.90;;;;;;;;;;5052863;28;20106;-60
2023/09/14 11:41:28;;;;;;;7.95;3.17;;;;;;;;;;5050488;28;20017;-59
2023/09/14 11:44:04;;;;;;;7.47;2.67;;;;;;;;;;5052922;28;20021;-59
2023/09/14 11:46:29;;;;;;;6.43;2.20;;;;;;;;;;5051697;28;20117;-60
2023/09/14 11:48:55;;;;;;;3.50;2.47;;;;;;;;;;5053123;28;20100;-60
2023/09/14 11:51:24;;;;;;;6.32;2.53;;;;;;;;;;5051252;28;20043;-60
2023/09/14 11:53:49;;;;;;;6.57;2.75;;;;;;;;;;5053018;28;20113;-60
2023/09/14 11:56:16;;;;;;;5.55;2.65;;;;;;;;;;5051055;28;20120;-60
2023/09/14 11:58:43;;;;;;;2.87;2.50;;;;;;;;;;5052373;28;20092;-59
2023/09/14 12:01:08;;;;;;;6.78;2.92;;;;;;;;;;5051322;28;20364;-59
2023/09/14 12:03:36;;;;;;;6.87;3.50;;;;;;;;;;5053034;28;20009;-60
2023/09/14 12:06:03;;;;;;;7.20;3.15;;;;;;;;;;5050900;28;20410;-61
2023/09/14 12:08:28;;;;;;;7.35;3.35;;;;;;;;;;5052924;28;20012;-60
2023/09/14 12:10:54;;;;;;;6.53;1.83;;;;;;;;;;5049992;28;20024;-64
2023/09/14 12:13:20;;;;;;;5.15;2.35;;;;;;;;;;5043208;28;20442;-60
2023/09/14 12:15:46;;;;;;;4.05;2.75;;;;;;;;;;5051995;28;20021;-60
2023/09/14 12:18:12;;;;;;;6.30;2.97;;;;;;;;;;5051208;28;20687;-60
2023/09/14 12:20:41;;;;;;;7.38;2.80;;;;;;;;;;5051806;28;20046;-60
2023/09/14 12:23:09;;;;;;;6.63;2.63;;;;;;;;;;5051255;28;20040;-60
2023/09/14 12:25:34;;;;;;;9.60;2.67;;;;;;;;;;5052590;28;20395;-60
2023/09/14 12:28:01;;;;;;;7.40;2.75;;;;;;;;;;5050615;28;20029;-60
2023/09/14 12:30:27;;;;;;;4.88;3.05;;;;;;;;;;5051010;28;20654;-60
2023/09/14 12:32:53;;;;;;;9.45;2.55;;;;;;;;;;5052337;28;20031;-60
2023/09/14 12:35:18;;;;;;;8.98;3.55;;;;;;;;;;5049765;28;20384;-60
2023/09/14 12:37:43;;;;;;;3.97;2.22;;;;;;;;;;5052051;28;20017;-60
2023/09/14 12:40:12;;;;;;;5.93;2.50;;;;;;;;;;5050221;28;20136;-60
2023/09/14 12:42:40;;;;;;;4.35;2.20;;;;;;;;;;5051361;28;20464;-60
2023/09/14 12:45:11;;;;;;;7.20;3.00;;;;;;;;;;5051970;28;20024;-60
2023/09/14 12:47:36;;;;;;;5.70;2.95;;;;;;;;;;5070335;28;20044;-60
2023/09/14 12:50:02;;;;;;;4.40;2.40;;;;;;;;;;5071742;28;20024;-60
2023/09/14 12:52:27;;;;;;;7.55;2.45;;;;;;;;;;5051015;28;20040;-59
2023/09/14 12:54:53;;;;;;;5.70;2.35;;;;;;;;;;5051872;28;20384;-59
2023/09/14 12:57:19;;;;;;;7.75;2.47;;;;;;;;;;5067905;28;20132;-59
2023/09/14 13:00:11;;;;;;;8.60;2.55;;;;;;;;;;5071358;28;20048;-59
2023/09/14 13:02:36;;;;;;;3.42;2.78;;;;;;;;;;5070065;28;20123;-59
2023/09/14 13:05:04;;;;;;;4.10;2.60;;;;;;;;;;5067677;28;20523;-59
2023/09/14 13:07:30;;;;;;;6.35;3.17;;;;;;;;;;5067979;28;20107;-60
2023/09/14 13:10:11;;;;;;;6.43;3.00;;;;;;;;;;5071661;28;20099;-59
2023/09/14 13:12:41;;;;;;;4.22;2.97;;;;;;;;;;5069563;28;20102;-58
2023/09/14 13:15:12;;;;;;;4.25;2.22;;;;;;;;;;5070249;28;20043;-58
2023/09/14 13:17:37;;;;;;;6.60;2.42;;;;;;;;;;5069145;28;20047;-58
2023/09/14 13:20:09;;;;;;;8.57;3.40;;;;;;;;;;5070699;28;20021;-58
2023/09/14 13:22:34;;;;;;;5.55;3.30;;;;;;;;;;5069563;28;20032;-58
2023/09/14 13:24:59;;;;;;;6.37;2.47;;;;;;;;;;5071043;28;20305;-58
2023/09/14 13:27:24;;;;;;;3.35;2.30;;;;;;;;;;5068868;28;20047;-58
2023/09/14 13:29:49;;;;;;;6.90;3.70;;;;;;;;;;5070889;28;20021;-58
2023/09/14 13:32:17;;;;;;;5.53;2.47;;;;;;;;;;5069609;28;20407;-58
2023/09/14 13:34:42;;;;;;;11.98;3.72;;;;;;;;;;5070637;28;20059;-58
2023/09/14 13:37:07;;;;;;;4.45;1.92;;;;;;;;;;5069451;28;20091;-59
2023/09/14 13:39:33;;;;;;;4.63;2.85;;;;;;;;;;5070311;28;20044;-61
2023/09/14 13:41:58;;;;;;;10.10;4.30;;;;;;;;;;5069120;28;20073;-58
2023/09/14 13:44:23;;;;;;;5.03;3.47;;;;;;;;;;5069455;28;20043;-58
2023/09/14 13:46:49;;;;;;;7.32;3.63;;;;;;;;;;5068761;28;20577;-58
2023/09/14 13:49:14;;;;;;;6.90;2.80;;;;;;;;;;5070340;28;20017;-58
2023/09/14 13:51:39;;;;;;;7.60;2.75;;;;;;;;;;5067592;28;20056;-58
2023/09/14 13:54:04;;;;;;;6.93;3.60;;;;;;;;;;5070505;28;20027;-58
2023/09/14 13:56:29;;;;;;;25.70;4.63;;;;;;;;;;5050383;28;20036;-58
2023/09/14 13:58:54;;;;;;;6.00;3.17;;;;;;;;;;5070376;28;20500;-59
2023/09/14 14:01:20;;;;;;;4.72;2.80;;;;;;;;;;5068859;28;20052;-59
2023/09/14 14:03:45;;;;;;;7.57;2.88;;;;;;;;;;5069792;28;20132;-58
2023/09/14 14:06:10;;;;;;;4.45;2.70;;;;;;;;;;5068583;28;20131;-59
2023/09/14 14:08:36;;;;;;;5.53;3.63;;;;;;;;;;5070249;28;20021;-65
2023/09/14 14:11:01;;;;;;;7.20;3.57;;;;;;;;;;5068578;28;20032;-59
2023/09/14 14:13:26;;;;;;;7.82;4.03;;;;;;;;;;5070425;28;20008;-59
2023/09/14 14:15:51;;;;;;;5.93;2.80;;;;;;;;;;5068810;28;20039;-64
2023/09/14 14:18:17;;;;;;;7.37;2.97;;;;;;;;;;5069537;28;20017;-59
2023/09/14 14:20:42;;;;;;;12.93;2.80;;;;;;;;;;5068507;28;20070;-58
2023/09/14 14:23:07;;;;;;;3.83;3.10;;;;;;;;;;5070238;28;20451;-59
2023/09/14 14:25:32;;;;;;;9.00;4.20;;;;;;;;;;5067964;28;20446;-59
2023/09/14 14:27:57;;;;;;;5.87;3.07;;;;;;;;;;5070178;28;20099;-59
2023/09/14 14:30:22;;;;;;;4.47;2.40;;;;;;;;;;5068591;28;20013;-59
2023/09/14 14:32:47;;;;;;;7.15;3.40;;;;;;;;;;5065332;28;20549;-58
2023/09/14 14:35:14;;;;;;;8.85;3.92;;;;;;;;;;5067048;28;20016;-58